Ackley, Iowa
Current Conditions -  °F | °C
As of 8:55 AM on Monday 22 Dec 2014 (Local Time) from KIFA Reporting Station
Drizzle Drizzle  
Wind Chill: 28°   Ceiling: 400
Heat Index: 36°   Visibility: 2mi
Dew Point: 35°   Wind: 12mph
Humidity: 96%   Direction: 130°SE
Pressure: 29.64"   Gusts: NA
Location:  42.55°N, 93.05°W
Report Text: KIFA 221455Z AUTO 13010KT 2SM DZ OVC004 02/02 A2964 RMK AO2 60001 T00210015
Loading
Personal Weather Stations






























Interactive Weather Map New forecast layout! Learn more

10-Day Weather Forecast

Advertisements
Track Severe Weather on mobile